createdAt,value
2022-08-16T00:00:28.312Z,99503.19
2022-08-16T00:03:06.214Z,99516.97
2022-08-16T00:05:47.852Z,99516.41
2022-08-16T00:08:36.265Z,99512.09
2022-08-16T00:11:03.579Z,99515.41
2022-08-16T00:13:30.472Z,99511.72
2022-08-16T00:15:57.259Z,99512.31
2022-08-16T00:18:29.833Z,99510.12
2022-08-16T00:20:57.665Z,99521.19
2022-08-16T00:23:40.231Z,99520.59
2022-08-16T00:26:35.576Z,99520.69
2022-08-16T00:28:58.417Z,99520.47
2022-08-16T00:31:26.243Z,99532.94
2022-08-16T00:34:18.445Z,99536.00
2022-08-16T00:36:47.407Z,99533.19
2022-08-16T00:39:16.365Z,99529.88
2022-08-16T00:41:49.012Z,99537.03
2022-08-16T00:44:18.658Z,99524.59
2022-08-16T00:47:09.053Z,99535.41
2022-08-16T00:49:39.338Z,99534.31
2022-08-16T00:52:29.195Z,99539.69
2022-08-16T00:54:56.750Z,99531.97
2022-08-16T00:57:24.011Z,99532.22
2022-08-16T00:59:59.480Z,99526.91
2022-08-16T01:02:30.882Z,99524.59
2022-08-16T01:05:11.314Z,99524.44
2022-08-16T01:07:49.765Z,99530.72
2022-08-16T01:10:32.382Z,99539.53
2022-08-16T01:13:05.875Z,99540.16
2022-08-16T01:15:36.262Z,99540.62
2022-08-16T01:18:05.007Z,99537.91
2022-08-16T01:20:38.122Z,99538.50
2022-08-16T01:23:17.936Z,99546.00
2022-08-16T01:26:00.406Z,99544.03
2022-08-16T01:28:38.899Z,99544.50
2022-08-16T01:31:14.912Z,99536.41
2022-08-16T01:33:44.717Z,99531.84
2022-08-16T01:36:12.928Z,99538.13
2022-08-16T01:38:46.956Z,99537.38
2022-08-16T01:41:25.728Z,99539.56
2022-08-16T01:43:56.962Z,99531.91
2022-08-16T01:46:40.773Z,99541.59
2022-08-16T01:49:15.103Z,99532.12
2022-08-16T01:51:44.374Z,99543.16
2022-08-16T01:54:13.186Z,99537.03
2022-08-16T01:56:40.977Z,99530.34
2022-08-16T01:59:15.930Z,99536.06
2022-08-16T02:01:52.637Z,99535.25
2022-08-16T02:04:48.235Z,99554.34
2022-08-16T02:07:15.463Z,99559.09
2022-08-16T02:09:44.298Z,99553.72
2022-08-16T02:12:43.612Z,99552.56
2022-08-16T02:15:15.747Z,99547.09
2022-08-16T02:17:43.271Z,99556.38
2022-08-16T02:20:26.226Z,99555.91
2022-08-16T02:22:55.292Z,99556.38
2022-08-16T02:25:23.178Z,99552.37
2022-08-16T02:27:50.760Z,99554.91
2022-08-16T02:30:36.647Z,99549.78
2022-08-16T02:33:11.116Z,99555.00
2022-08-16T02:35:54.559Z,99553.06
2022-08-16T02:38:26.384Z,99547.97
2022-08-16T02:40:54.554Z,99544.41
2022-08-16T02:43:26.914Z,99548.19
2022-08-16T02:45:57.610Z,99537.97
2022-08-16T02:48:29.910Z,99527.63
2022-08-16T02:51:06.798Z,99544.44
2022-08-16T02:53:44.688Z,99541.22
2022-08-16T02:56:15.532Z,99550.47
2022-08-16T02:58:49.352Z,99553.41
2022-08-16T03:01:24.571Z,99552.00
2022-08-16T03:04:41.222Z,99551.03
2022-08-16T03:06:48.631Z,99552.13
2022-08-16T03:09:19.165Z,99553.53
2022-08-16T03:11:47.448Z,99553.84
2022-08-16T03:14:21.210Z,99553.63
2022-08-16T03:16:58.906Z,99558.59
2022-08-16T03:19:48.245Z,99562.25
2022-08-16T03:22:18.910Z,99562.56
2022-08-16T03:24:46.661Z,99572.03
2022-08-16T03:27:13.774Z,99567.97
2022-08-16T03:29:42.764Z,99574.41
2022-08-16T03:32:21.637Z,99570.94
2022-08-16T03:34:49.986Z,99570.75
2022-08-16T03:37:17.546Z,99575.75
2022-08-16T03:39:48.387Z,99567.44
2022-08-16T03:42:23.633Z,99575.75
2022-08-16T03:44:50.476Z,99575.00
2022-08-16T03:47:19.770Z,99579.59
2022-08-16T03:49:51.663Z,99579.50
2022-08-16T03:52:23.926Z,99584.13
2022-08-16T03:54:59.486Z,99592.72
2022-08-16T03:57:32.129Z,99595.72
2022-08-16T04:00:35.223Z,99601.44
2022-08-16T04:03:08.542Z,99603.59
2022-08-16T04:05:39.049Z,99609.84
2022-08-16T04:08:22.927Z,99598.50
2022-08-16T04:10:55.686Z,99601.19
2022-08-16T04:13:59.003Z,99590.09
2022-08-16T04:16:27.436Z,99594.22
2022-08-16T04:19:01.273Z,99599.81
2022-08-16T04:21:46.173Z,99600.91
2022-08-16T04:24:14.887Z,99607.03
2022-08-16T04:26:45.812Z,99611.56
2022-08-16T04:29:21.158Z,99608.53
2022-08-16T04:31:56.283Z,99609.41
2022-08-16T04:34:31.431Z,99609.81
2022-08-16T04:37:01.453Z,99608.91
2022-08-16T04:39:44.888Z,99612.31
2022-08-16T04:42:15.591Z,99616.78
2022-08-16T04:44:54.669Z,99616.38
2022-08-16T04:47:31.304Z,99624.69
2022-08-16T04:50:00.061Z,99602.72
2022-08-16T04:52:33.603Z,99600.22
2022-08-16T04:55:01.659Z,99603.59
2022-08-16T04:57:30.554Z,99586.03
2022-08-16T04:59:59.532Z,99608.53
2022-08-16T05:02:54.786Z,99602.81
2022-08-16T05:05:24.154Z,99602.50
2022-08-16T05:07:58.658Z,99608.00
2022-08-16T05:10:29.510Z,99599.56
2022-08-16T05:12:58.467Z,99617.34
2022-08-16T05:15:25.796Z,99598.09
2022-08-16T05:17:58.636Z,99602.25
2022-08-16T05:20:39.306Z,99606.28
2022-08-16T05:23:17.487Z,99596.69
2022-08-16T05:25:48.361Z,99600.16
2022-08-16T05:28:17.600Z,99608.00
2022-08-16T05:30:50.427Z,99608.97
2022-08-16T05:33:18.494Z,99607.84
2022-08-16T05:35:55.639Z,99622.59
2022-08-16T05:38:32.354Z,99621.19
2022-08-16T05:41:06.914Z,99612.44
2022-08-16T05:43:43.196Z,99626.59
2022-08-16T05:46:30.628Z,99629.34
2022-08-16T05:49:08.766Z,99625.38
2022-08-16T05:51:39.962Z,99622.34
2022-08-16T05:54:11.671Z,99622.28
2022-08-16T05:56:42.974Z,99621.38
2022-08-16T05:59:10.932Z,99617.72
2022-08-16T06:01:39.580Z,99629.41
2022-08-16T06:04:12.758Z,99629.75
2022-08-16T06:06:55.760Z,99631.53
2022-08-16T06:09:25.956Z,99634.63
2022-08-16T06:12:11.756Z,99633.69
2022-08-16T06:14:40.030Z,99630.97
2022-08-16T06:17:07.747Z,99626.28
2022-08-16T06:19:41.507Z,99620.28
2022-08-16T06:22:11.446Z,99628.00
2022-08-16T06:24:58.753Z,99633.53
2022-08-16T06:27:27.445Z,99637.94
2022-08-16T06:30:11.320Z,99639.38
2022-08-16T06:32:42.809Z,99644.22
2022-08-16T06:35:11.777Z,99649.47
2022-08-16T06:37:47.004Z,99652.28
2022-08-16T06:40:19.889Z,99640.25
2022-08-16T06:42:48.445Z,99646.53
2022-08-16T06:45:15.799Z,99649.78
2022-08-16T06:47:52.922Z,99647.66
2022-08-16T06:50:28.554Z,99659.19
2022-08-16T06:53:09.033Z,99652.78
2022-08-16T06:55:38.271Z,99644.34
2022-08-16T06:58:08.402Z,99647.22
2022-08-16T07:00:43.044Z,99643.91
2022-08-16T07:03:27.681Z,99647.38
2022-08-16T07:05:58.016Z,99651.56
2022-08-16T07:08:27.261Z,99648.28
2022-08-16T07:10:54.759Z,99646.28
2022-08-16T07:13:58.001Z,99643.56
2022-08-16T07:16:15.546Z,99645.69
2022-08-16T07:18:58.929Z,99656.25
2022-08-16T07:21:45.859Z,99647.91
2022-08-16T07:24:30.610Z,99659.03
2022-08-16T07:27:02.139Z,99658.91
2022-08-16T07:29:32.043Z,99656.84
2022-08-16T07:32:00.535Z,99646.47
2022-08-16T07:34:35.802Z,99656.97
2022-08-16T07:37:11.006Z,99657.81
2022-08-16T07:39:44.681Z,99649.19
2022-08-16T07:42:26.152Z,99646.06
2022-08-16T07:44:58.018Z,99651.84
2022-08-16T07:47:31.404Z,99653.81
2022-08-16T07:50:07.749Z,99651.13
2022-08-16T07:52:38.652Z,99658.50
2022-08-16T07:55:08.105Z,99656.56
2022-08-16T07:57:44.360Z,99663.03
2022-08-16T08:00:26.331Z,99659.72
2022-08-16T08:02:57.037Z,99659.09
2022-08-16T08:05:28.186Z,99652.09
2022-08-16T08:08:11.491Z,99652.22
2022-08-16T08:10:51.223Z,99641.75
2022-08-16T08:13:18.529Z,99653.31
2022-08-16T08:15:53.134Z,99654.69
2022-08-16T08:18:29.455Z,99647.25
2022-08-16T08:20:59.038Z,99644.50
2022-08-16T08:23:27.717Z,99633.25
2022-08-16T08:25:55.856Z,99639.59
2022-08-16T08:28:23.135Z,99633.78
2022-08-16T08:31:01.433Z,99631.03
2022-08-16T08:33:31.665Z,99637.13
2022-08-16T08:36:01.228Z,99621.44
2022-08-16T08:38:45.717Z,99626.63
2022-08-16T08:41:15.478Z,99629.88
2022-08-16T08:43:47.351Z,99624.66
2022-08-16T08:46:21.742Z,99637.22
2022-08-16T08:49:01.959Z,99628.63
2022-08-16T08:51:31.915Z,99631.62
2022-08-16T08:54:06.552Z,99630.03
2022-08-16T08:56:37.270Z,99625.75
2022-08-16T08:59:13.466Z,99626.00
2022-08-16T09:01:56.295Z,99629.84
2022-08-16T09:04:29.516Z,99627.75
2022-08-16T09:06:58.508Z,99631.44
2022-08-16T09:09:33.533Z,99626.75
2022-08-16T09:12:06.336Z,99624.78
2022-08-16T09:14:35.459Z,99629.69
2022-08-16T09:17:11.564Z,99619.69
2022-08-16T09:19:42.234Z,99619.31
2022-08-16T09:22:19.784Z,99602.06
2022-08-16T09:24:53.415Z,99613.00
2022-08-16T09:27:23.569Z,99612.59
2022-08-16T09:29:59.738Z,99615.88
2022-08-16T09:32:30.491Z,99630.28
2022-08-16T09:35:01.594Z,99623.12
2022-08-16T09:37:36.391Z,99612.94
2022-08-16T09:40:31.681Z,99605.22
2022-08-16T09:42:59.127Z,99615.53
2022-08-16T09:45:29.036Z,99613.69
2022-08-16T09:47:58.398Z,99607.25
2022-08-16T09:50:36.755Z,99603.03
2022-08-16T09:53:15.580Z,99599.09
2022-08-16T09:55:49.540Z,99598.72
2022-08-16T09:58:41.912Z,99604.75
2022-08-16T10:01:08.634Z,99601.25
2022-08-16T10:04:01.105Z,99602.66
2022-08-16T10:06:33.710Z,99594.81
2022-08-16T10:09:08.174Z,99597.06
2022-08-16T10:11:56.179Z,99594.16
2022-08-16T10:14:40.698Z,99595.56
2022-08-16T10:17:13.562Z,99593.47
2022-08-16T10:19:43.467Z,99590.75
2022-08-16T10:22:12.702Z,99586.53
2022-08-16T10:24:40.720Z,99595.22
2022-08-16T10:27:28.913Z,99579.41
2022-08-16T10:30:06.537Z,99581.41
2022-08-16T10:32:50.906Z,99583.81
2022-08-16T10:35:18.775Z,99576.97
2022-08-16T10:37:45.987Z,99578.69
2022-08-16T10:40:29.388Z,99580.91
2022-08-16T10:43:00.308Z,99578.34
2022-08-16T10:45:37.014Z,99575.69
2022-08-16T10:48:28.050Z,99568.25
2022-08-16T10:50:56.332Z,99570.94
2022-08-16T10:53:33.006Z,99561.72
2022-08-16T10:56:02.756Z,99559.31
2022-08-16T10:58:34.339Z,99550.38
2022-08-16T11:03:57.370Z,99550.31
2022-08-16T11:06:27.807Z,99537.34
2022-08-16T11:14:34.066Z,99543.16
2022-08-16T11:17:10.630Z,99548.91
2022-08-16T11:22:41.877Z,99550.53
2022-08-16T11:28:08.987Z,99544.66
2022-08-16T11:30:38.669Z,99548.00
2022-08-16T11:33:10.772Z,99538.38
2022-08-16T11:36:22.474Z,99544.69
2022-08-16T11:38:51.907Z,99540.19
2022-08-16T11:41:13.796Z,99538.50
2022-08-16T11:43:45.040Z,99539.66
2022-08-16T11:46:45.031Z,99549.63
2022-08-16T11:49:02.982Z,99550.97
2022-08-16T11:51:30.194Z,99540.12
2022-08-16T11:53:57.897Z,99529.72
2022-08-16T11:56:39.773Z,99540.28
2022-08-16T11:59:12.824Z,99535.59
2022-08-16T12:01:54.784Z,99544.91
2022-08-16T12:04:26.071Z,99553.75
2022-08-16T12:06:53.784Z,99545.00
2022-08-16T12:09:24.116Z,99542.34
2022-08-16T12:11:53.186Z,99534.88
2022-08-16T12:14:23.110Z,99533.63
2022-08-16T12:16:55.546Z,99541.97
2022-08-16T12:19:33.486Z,99531.25
2022-08-16T12:22:01.603Z,99543.25
2022-08-16T12:24:32.935Z,99538.22
2022-08-16T12:27:00.954Z,99541.63
2022-08-16T12:29:30.121Z,99538.00
2022-08-16T12:32:01.670Z,99524.12
2022-08-16T12:34:50.516Z,99523.28
2022-08-16T12:37:20.750Z,99517.81
2022-08-16T12:39:51.279Z,99532.88
2022-08-16T12:42:20.368Z,99520.28
2022-08-16T12:44:49.591Z,99519.00
2022-08-16T12:47:37.337Z,99511.53
2022-08-16T12:50:10.387Z,99508.59
2022-08-16T12:52:40.047Z,99506.31
2022-08-16T12:55:14.363Z,99515.81
2022-08-16T12:57:41.914Z,99513.75
2022-08-16T13:00:26.696Z,99496.06
2022-08-16T13:03:02.439Z,99500.22
2022-08-16T13:08:04.071Z,99495.72
2022-08-16T13:10:39.253Z,99484.44
2022-08-16T13:13:09.214Z,99478.13
2022-08-16T13:15:51.751Z,99499.50
2022-08-16T13:18:34.778Z,99496.00
2022-08-16T13:21:08.488Z,99501.47
2022-08-16T13:23:43.223Z,99493.44
2022-08-16T13:26:12.789Z,99495.75
2022-08-16T13:28:47.686Z,99503.31
2022-08-16T13:31:16.055Z,99487.44
2022-08-16T13:33:44.437Z,99485.06
2022-08-16T13:36:21.161Z,99491.75
2022-08-16T13:39:00.049Z,99484.69
2022-08-16T13:41:30.261Z,99481.09
2022-08-16T13:44:00.905Z,99480.47
2022-08-16T13:46:32.428Z,99477.22
2022-08-16T13:48:59.800Z,99477.19
2022-08-16T13:51:30.720Z,99477.50
2022-08-16T13:54:03.901Z,99468.44
2022-08-16T13:56:37.640Z,99478.22
2022-08-16T13:59:14.437Z,99473.91
2022-08-16T14:01:55.511Z,99472.31
2022-08-16T14:04:31.713Z,99468.72
2022-08-16T14:07:00.882Z,99464.31
2022-08-16T14:09:30.490Z,99470.69
2022-08-16T14:12:00.845Z,99462.69
2022-08-16T14:14:29.885Z,99481.47
2022-08-16T14:16:59.535Z,99473.28
2022-08-16T14:19:27.976Z,99472.97
2022-08-16T14:22:14.041Z,99479.78
2022-08-16T14:24:45.321Z,99479.19
2022-08-16T14:27:19.600Z,99483.78
2022-08-16T14:29:55.386Z,99489.50
2022-08-16T14:32:33.885Z,99483.78
2022-08-16T14:35:15.625Z,99481.91
2022-08-16T14:37:43.399Z,99487.22
2022-08-16T14:40:15.828Z,99482.34
2022-08-16T14:42:46.438Z,99489.75
2022-08-16T14:45:18.539Z,99485.19
2022-08-16T14:47:46.683Z,99483.03
2022-08-16T14:50:24.308Z,99484.25
2022-08-16T14:53:00.943Z,99493.78
2022-08-16T14:55:30.751Z,99480.09
2022-08-16T14:57:58.070Z,99491.44
2022-08-16T15:00:33.990Z,99485.63
2022-08-16T15:03:06.571Z,99487.41
2022-08-16T15:05:38.607Z,99481.59
2022-08-16T15:08:06.065Z,99485.91
2022-08-16T15:10:37.202Z,99479.72
2022-08-16T15:13:09.667Z,99492.97
2022-08-16T15:15:38.073Z,99490.22
2022-08-16T15:18:06.296Z,99484.44
2022-08-16T15:20:41.549Z,99493.66
2022-08-16T15:23:09.293Z,99502.22
2022-08-16T15:25:43.069Z,99507.50
2022-08-16T15:28:30.792Z,99509.06
2022-08-16T15:31:03.162Z,99505.25
2022-08-16T15:33:33.021Z,99510.78
2022-08-16T15:36:00.724Z,99513.28
2022-08-16T15:38:54.863Z,99514.09
2022-08-16T15:41:43.692Z,99517.56
2022-08-16T15:44:14.721Z,99521.53
2022-08-16T15:46:55.749Z,99517.06
2022-08-16T15:49:38.077Z,99513.06
2022-08-16T15:52:15.793Z,99519.84
2022-08-16T15:54:53.033Z,99521.84
2022-08-16T15:57:27.261Z,99525.47
2022-08-16T16:00:04.671Z,99521.69
2022-08-16T16:02:43.301Z,99516.09
2022-08-16T16:05:10.487Z,99528.56
2022-08-16T16:07:53.552Z,99528.09
2022-08-16T16:10:29.732Z,99539.19
2022-08-16T16:13:05.060Z,99546.09
2022-08-16T16:16:06.739Z,99559.94
2022-08-16T16:18:40.594Z,99577.94
2022-08-16T16:21:12.259Z,99577.09
2022-08-16T16:23:53.994Z,99572.25
2022-08-16T16:26:22.256Z,99570.19
2022-08-16T16:29:07.404Z,99578.06
2022-08-16T16:31:41.202Z,99581.00
2022-08-16T16:34:11.608Z,99585.19
2022-08-16T16:36:39.953Z,99586.16
2022-08-16T16:39:10.969Z,99586.28
2022-08-16T16:41:39.641Z,99588.16
2022-08-16T16:44:09.191Z,99589.50
2022-08-16T16:46:42.691Z,99594.19
2022-08-16T16:49:11.748Z,99605.19
2022-08-16T16:51:44.689Z,99612.41
2022-08-16T16:54:28.079Z,99622.13
2022-08-16T16:56:57.328Z,99639.59
2022-08-16T16:59:25.560Z,99631.38
2022-08-16T17:02:38.673Z,99636.13
2022-08-16T17:04:43.290Z,99631.03
2022-08-16T17:07:11.790Z,99632.84
2022-08-16T17:09:41.816Z,99639.78
2022-08-16T17:12:12.170Z,99628.31
2022-08-16T17:14:50.631Z,99618.81
2022-08-16T17:17:17.505Z,99608.56
2022-08-16T17:19:49.595Z,99620.37
2022-08-16T17:22:20.061Z,99619.84
2022-08-16T17:27:37.533Z,99637.13
2022-08-16T17:33:01.381Z,99662.16
2022-08-16T17:38:33.109Z,99660.91
2022-08-16T17:39:27.208Z,99667.97
2022-08-16T17:39:28.047Z,99624.91
2022-08-16T17:39:28.517Z,99644.69
2022-08-16T17:41:07.806Z,99671.56
2022-08-16T17:43:43.968Z,99679.50
2022-08-16T17:46:51.404Z,99669.44
2022-08-16T17:48:59.812Z,99675.56
2022-08-16T17:51:28.617Z,99679.88
2022-08-16T17:53:55.785Z,99673.59
2022-08-16T17:56:22.660Z,99677.00
2022-08-16T17:58:49.751Z,99681.41
2022-08-16T18:01:21.155Z,99682.25
2022-08-16T18:04:08.915Z,99672.53
2022-08-16T18:06:36.161Z,99680.66
2022-08-16T18:09:04.174Z,99659.94
2022-08-16T18:11:34.007Z,99677.78
2022-08-16T18:14:01.344Z,99671.44
2022-08-16T18:16:28.511Z,99675.47
2022-08-16T18:18:55.365Z,99666.84
2022-08-16T18:21:41.810Z,99675.25
2022-08-16T18:24:10.136Z,99670.91
2022-08-16T18:26:37.964Z,99680.69
2022-08-16T18:29:05.686Z,99669.00
2022-08-16T18:31:34.022Z,99675.28
2022-08-16T18:34:01.471Z,99674.53
2022-08-16T18:36:28.695Z,99673.09
2022-08-16T18:38:55.819Z,99677.69
2022-08-16T18:41:24.435Z,99674.25
2022-08-16T18:44:22.346Z,99677.25
2022-08-16T18:46:43.784Z,99683.09
2022-08-16T18:49:14.899Z,99688.53
2022-08-16T18:51:45.305Z,99681.69
2022-08-16T18:54:18.018Z,99681.37
2022-08-16T18:56:55.983Z,99691.38
2022-08-16T18:59:29.765Z,99694.09
2022-08-16T19:02:00.262Z,99703.50
2022-08-16T19:04:55.098Z,99706.38
2022-08-16T19:07:30.528Z,99714.19
2022-08-16T19:10:05.825Z,99719.31
2022-08-16T19:12:38.700Z,99715.94
2022-08-16T19:15:14.142Z,99717.56
2022-08-16T19:17:42.121Z,99714.78
2022-08-16T19:20:12.194Z,99724.69
2022-08-16T19:25:47.155Z,99716.66
2022-08-16T19:28:51.497Z,99720.63
2022-08-16T19:31:16.512Z,99718.28
2022-08-16T19:33:53.836Z,99717.94
2022-08-16T19:36:35.203Z,99725.25
2022-08-16T19:39:11.412Z,99725.25
2022-08-16T19:41:43.492Z,99728.09
2022-08-16T19:44:10.572Z,99719.37
2022-08-16T19:46:41.733Z,99721.69
2022-08-16T19:49:09.488Z,99730.75
2022-08-16T19:51:43.906Z,99723.97
2022-08-16T19:54:11.234Z,99718.56
2022-08-16T19:56:38.462Z,99719.31
2022-08-16T19:59:40.342Z,99712.94
2022-08-16T20:01:56.127Z,99732.31
2022-08-16T20:04:24.888Z,99726.56
2022-08-16T20:06:54.836Z,99733.59
2022-08-16T20:09:23.292Z,99735.16
2022-08-16T20:11:53.073Z,99735.75
2022-08-16T20:14:25.633Z,99743.16
2022-08-16T20:16:55.761Z,99746.72
2022-08-16T20:19:22.893Z,99745.91
2022-08-16T20:21:57.161Z,99748.59
2022-08-16T20:24:40.172Z,99739.41
2022-08-16T20:27:09.830Z,99745.69
2022-08-16T20:29:38.854Z,99754.03
2022-08-16T20:32:07.354Z,99756.50
2022-08-16T20:34:35.014Z,99762.03
2022-08-16T20:37:01.898Z,99751.97
2022-08-16T20:39:28.927Z,99756.63
2022-08-16T20:44:40.721Z,99756.38
2022-08-16T20:47:08.320Z,99755.66
2022-08-16T20:49:36.459Z,99762.53
2022-08-16T20:52:12.142Z,99759.81
2022-08-16T20:54:39.793Z,99762.91
2022-08-16T20:57:07.217Z,99764.75
2022-08-16T20:59:34.830Z,99765.63
2022-08-16T21:02:01.900Z,99768.56
2022-08-16T21:04:29.897Z,99770.25
2022-08-16T21:06:59.335Z,99773.88
2022-08-16T21:09:28.955Z,99759.72
2022-08-16T21:11:57.480Z,99776.56
2022-08-16T21:14:25.359Z,99779.94
2022-08-16T21:16:52.359Z,99767.78
2022-08-16T21:19:20.853Z,99774.91
2022-08-16T21:21:47.802Z,99768.88
2022-08-16T21:24:15.102Z,99776.16
2022-08-16T21:26:49.799Z,99774.91
2022-08-16T21:29:24.896Z,99773.28
2022-08-16T21:31:52.230Z,99773.66
2022-08-16T21:34:19.050Z,99787.41
2022-08-16T21:36:45.986Z,99792.31
2022-08-16T21:39:13.096Z,99793.31
2022-08-16T21:41:40.039Z,99798.81
2022-08-16T21:44:07.197Z,99795.50
2022-08-16T21:46:34.102Z,99796.03
2022-08-16T21:49:00.957Z,99797.03
2022-08-16T21:51:27.953Z,99801.44
2022-08-16T21:53:55.108Z,99799.78
2022-08-16T21:56:21.965Z,99796.88
2022-08-16T21:58:53.032Z,99799.69
2022-08-16T22:01:23.015Z,99791.59
2022-08-16T22:04:03.557Z,99789.97
2022-08-16T22:06:39.198Z,99792.41
2022-08-16T22:09:07.836Z,99797.25
2022-08-16T22:11:34.670Z,99806.50
2022-08-16T22:14:03.247Z,99796.28
2022-08-16T22:16:33.382Z,99804.47
2022-08-16T22:19:01.504Z,99809.38
2022-08-16T22:21:29.317Z,99808.75
2022-08-16T22:23:58.452Z,99805.19
2022-08-16T22:26:34.391Z,99802.69
2022-08-16T22:29:04.945Z,99799.78
2022-08-16T22:31:33.069Z,99791.72
2022-08-16T22:34:01.899Z,99801.66
2022-08-16T22:36:30.484Z,99800.94
2022-08-16T22:38:59.289Z,99802.13
2022-08-16T22:41:32.028Z,99806.91
2022-08-16T22:44:01.148Z,99810.31
2022-08-16T22:46:28.932Z,99803.00
2022-08-16T22:48:56.181Z,99801.66
2022-08-16T22:51:25.382Z,99811.16
2022-08-16T22:53:52.764Z,99804.78
2022-08-16T22:56:19.963Z,99813.97
2022-08-16T22:58:47.730Z,99812.91
2022-08-16T23:01:16.414Z,99811.06
2022-08-16T23:03:43.637Z,99809.87
2022-08-16T23:06:12.417Z,99811.06
2022-08-16T23:08:41.421Z,99806.19
2022-08-16T23:11:21.195Z,99803.19
2022-08-16T23:13:57.360Z,99800.16
2022-08-16T23:16:32.782Z,99795.09
2022-08-16T23:19:04.722Z,99796.06
2022-08-16T23:21:32.047Z,99790.34
2022-08-16T23:23:59.057Z,99793.81
2022-08-16T23:29:22.119Z,99792.19
2022-08-16T23:32:11.679Z,99798.56
2022-08-16T23:34:38.701Z,99796.53
2022-08-16T23:37:06.654Z,99792.53
2022-08-16T23:39:35.946Z,99796.94
2022-08-16T23:42:11.519Z,99797.16
2022-08-16T23:44:56.993Z,99788.75
2022-08-16T23:47:25.511Z,99795.84
2022-08-16T23:50:00.281Z,99807.62
2022-08-16T23:52:53.271Z,99803.00
2022-08-16T23:55:17.217Z,99803.00
2022-08-16T23:57:46.140Z,99807.75
